sensor_id;sensor_type;location;lat;lon;timestamp;temperature;humidity
20590;DHT22;10453;50.810;12.540;2022-12-18T00:02:04;-12.00;99.90
20590;DHT22;10453;50.810;12.540;2022-12-18T00:06:23;-12.00;99.90
20590;DHT22;10453;50.810;12.540;2022-12-18T00:10:40;-12.10;99.90
20590;DHT22;10453;50.810;12.540;2022-12-18T00:14:58;-12.20;99.90
20590;DHT22;10453;50.810;12.540;2022-12-18T00:19:16;-12.10;99.90
20590;DHT22;10453;50.810;12.540;2022-12-18T00:23:34;-12.30;99.90
20590;DHT22;10453;50.810;12.540;2022-12-18T00:27:52;-12.20;99.90
20590;DHT22;10453;50.810;12.540;2022-12-18T00:32:10;-12.10;99.90
20590;DHT22;10453;50.810;12.540;2022-12-18T00:36:31;-12.20;99.90
20590;DHT22;10453;50.810;12.540;2022-12-18T00:40:48;-12.20;99.90
20590;DHT22;10453;50.810;12.540;2022-12-18T00:45:06;-12.10;99.90
20590;DHT22;10453;50.810;12.540;2022-12-18T00:49:28;-12.20;99.90
20590;DHT22;10453;50.810;12.540;2022-12-18T00:53:46;-12.30;99.90
20590;DHT22;10453;50.810;12.540;2022-12-18T00:58:03;-12.40;99.90
20590;DHT22;10453;50.810;12.540;2022-12-18T01:02:20;-12.30;99.90
20590;DHT22;10453;50.810;12.540;2022-12-18T01:06:38;-12.40;99.90
20590;DHT22;10453;50.810;12.540;2022-12-18T01:10:56;-12.40;99.90
20590;DHT22;10453;50.810;12.540;2022-12-18T01:15:14;-12.40;99.90
20590;DHT22;10453;50.810;12.540;2022-12-18T01:19:31;-12.60;99.90
20590;DHT22;10453;50.810;12.540;2022-12-18T01:23:56;-12.60;99.90
20590;DHT22;10453;50.810;12.540;2022-12-18T01:28:13;-12.60;99.90
20590;DHT22;10453;50.810;12.540;2022-12-18T01:32:31;-12.60;99.90
20590;DHT22;10453;50.810;12.540;2022-12-18T01:36:49;-12.70;99.90
20590;DHT22;10453;50.810;12.540;2022-12-18T01:41:06;-12.70;99.90
20590;DHT22;10453;50.810;12.540;2022-12-18T01:45:27;-12.80;99.90
20590;DHT22;10453;50.810;12.540;2022-12-18T01:49:44;-12.70;99.90
20590;DHT22;10453;50.810;12.540;2022-12-18T01:54:01;-12.70;99.90
20590;DHT22;10453;50.810;12.540;2022-12-18T01:58:21;-12.70;99.90
20590;DHT22;10453;50.810;12.540;2022-12-18T02:02:41;-12.80;99.90
20590;DHT22;10453;50.810;12.540;2022-12-18T02:07:17;-12.70;99.90
20590;DHT22;10453;50.810;12.540;2022-12-18T02:21:41;-12.80;99.90
20590;DHT22;10453;50.810;12.540;2022-12-18T02:30:24;-12.80;99.90
20590;DHT22;10453;50.810;12.540;2022-12-18T02:34:43;-12.90;99.90
20590;DHT22;10453;50.810;12.540;2022-12-18T02:39:02;-13.00;99.90
20590;DHT22;10453;50.810;12.540;2022-12-18T02:43:20;-13.10;99.90
20590;DHT22;10453;50.810;12.540;2022-12-18T02:47:40;-13.00;99.90
20590;DHT22;10453;50.810;12.540;2022-12-18T02:56:40;-12.90;99.90
20590;DHT22;10453;50.810;12.540;2022-12-18T03:05:55;-12.90;99.90
20590;DHT22;10453;50.810;12.540;2022-12-18T03:10:18;-13.00;99.90
20590;DHT22;10453;50.810;12.540;2022-12-18T03:14:38;-13.00;99.90
20590;DHT22;10453;50.810;12.540;2022-12-18T03:18:58;-12.90;99.90
20590;DHT22;10453;50.810;12.540;2022-12-18T03:23:20;-13.10;99.90
20590;DHT22;10453;50.810;12.540;2022-12-18T03:27:46;-13.30;99.90
20590;DHT22;10453;50.810;12.540;2022-12-18T03:32:09;-13.10;99.90
20590;DHT22;10453;50.810;12.540;2022-12-18T03:36:27;-12.90;99.90
20590;DHT22;10453;50.810;12.540;2022-12-18T03:41:06;-13.00;99.90
20590;DHT22;10453;50.810;12.540;2022-12-18T03:45:35;-13.10;99.90
20590;DHT22;10453;50.810;12.540;2022-12-18T03:54:28;-13.10;99.90
20590;DHT22;10453;50.810;12.540;2022-12-18T03:58:47;-13.20;99.90
20590;DHT22;10453;50.810;12.540;2022-12-18T04:03:05;-13.30;99.90
20590;DHT22;10453;50.810;12.540;2022-12-18T04:07:24;-13.30;99.90
20590;DHT22;10453;50.810;12.540;2022-12-18T04:11:42;-13.30;99.90
20590;DHT22;10453;50.810;12.540;2022-12-18T04:16:02;-13.20;99.90
20590;DHT22;10453;50.810;12.540;2022-12-18T04:20:20;-13.20;99.90
20590;DHT22;10453;50.810;12.540;2022-12-18T04:24:37;-13.40;99.90
20590;DHT22;10453;50.810;12.540;2022-12-18T04:28:55;-13.50;99.90
20590;DHT22;10453;50.810;12.540;2022-12-18T04:33:13;-13.50;99.90
20590;DHT22;10453;50.810;12.540;2022-12-18T04:37:30;-13.50;99.90
20590;DHT22;10453;50.810;12.540;2022-12-18T04:41:47;-13.50;99.90
20590;DHT22;10453;50.810;12.540;2022-12-18T04:46:06;-13.60;99.90
20590;DHT22;10453;50.810;12.540;2022-12-18T04:50:24;-13.60;99.90
20590;DHT22;10453;50.810;12.540;2022-12-18T04:54:41;-13.40;99.90
20590;DHT22;10453;50.810;12.540;2022-12-18T04:58:59;-13.60;99.90
20590;DHT22;10453;50.810;12.540;2022-12-18T05:03:16;-13.50;99.90
20590;DHT22;10453;50.810;12.540;2022-12-18T05:07:33;-13.50;99.90
20590;DHT22;10453;50.810;12.540;2022-12-18T05:11:50;-13.60;99.90
20590;DHT22;10453;50.810;12.540;2022-12-18T05:16:07;-13.70;99.90
20590;DHT22;10453;50.810;12.540;2022-12-18T05:20:25;-13.50;99.90
20590;DHT22;10453;50.810;12.540;2022-12-18T05:24:43;-13.40;99.90
20590;DHT22;10453;50.810;12.540;2022-12-18T05:29:00;-13.50;99.90
20590;DHT22;10453;50.810;12.540;2022-12-18T05:33:18;-13.50;99.90
20590;DHT22;10453;50.810;12.540;2022-12-18T05:37:36;-13.60;99.90
20590;DHT22;10453;50.810;12.540;2022-12-18T05:41:59;-13.50;99.90
20590;DHT22;10453;50.810;12.540;2022-12-18T05:46:17;-13.40;99.90
20590;DHT22;10453;50.810;12.540;2022-12-18T05:50:38;-13.50;99.90
20590;DHT22;10453;50.810;12.540;2022-12-18T05:54:56;-13.50;99.90
20590;DHT22;10453;50.810;12.540;2022-12-18T05:59:13;-13.50;99.90
20590;DHT22;10453;50.810;12.540;2022-12-18T06:03:30;-13.60;99.90
20590;DHT22;10453;50.810;12.540;2022-12-18T06:07:50;-13.60;99.90
20590;DHT22;10453;50.810;12.540;2022-12-18T06:12:07;-13.50;99.90
20590;DHT22;10453;50.810;12.540;2022-12-18T06:16:25;-13.60;99.90
20590;DHT22;10453;50.810;12.540;2022-12-18T06:20:42;-13.80;99.90
20590;DHT22;10453;50.810;12.540;2022-12-18T06:25:00;-13.70;99.90
20590;DHT22;10453;50.810;12.540;2022-12-18T06:29:17;-13.70;99.90
20590;DHT22;10453;50.810;12.540;2022-12-18T06:33:35;-13.80;99.90
20590;DHT22;10453;50.810;12.540;2022-12-18T06:37:52;-13.80;99.90
20590;DHT22;10453;50.810;12.540;2022-12-18T06:42:10;-13.80;99.90
20590;DHT22;10453;50.810;12.540;2022-12-18T06:46:27;-13.90;99.90
20590;DHT22;10453;50.810;12.540;2022-12-18T06:50:44;-13.80;99.90
20590;DHT22;10453;50.810;12.540;2022-12-18T06:55:01;-13.80;99.90
20590;DHT22;10453;50.810;12.540;2022-12-18T06:59:18;-13.90;99.90
20590;DHT22;10453;50.810;12.540;2022-12-18T07:03:37;-14.10;99.90
20590;DHT22;10453;50.810;12.540;2022-12-18T07:07:55;-14.00;99.90
20590;DHT22;10453;50.810;12.540;2022-12-18T07:12:12;-14.10;99.90
20590;DHT22;10453;50.810;12.540;2022-12-18T07:16:29;-13.90;99.90
20590;DHT22;10453;50.810;12.540;2022-12-18T07:20:47;-14.00;99.90
20590;DHT22;10453;50.810;12.540;2022-12-18T07:25:05;-14.00;99.90
20590;DHT22;10453;50.810;12.540;2022-12-18T07:29:23;-13.90;99.90
20590;DHT22;10453;50.810;12.540;2022-12-18T07:33:42;-13.80;99.90
20590;DHT22;10453;50.810;12.540;2022-12-18T07:37:59;-13.80;99.90
20590;DHT22;10453;50.810;12.540;2022-12-18T07:42:16;-13.70;99.90
20590;DHT22;10453;50.810;12.540;2022-12-18T07:46:49;-13.70;99.90
20590;DHT22;10453;50.810;12.540;2022-12-18T07:51:07;-13.60;99.90
20590;DHT22;10453;50.810;12.540;2022-12-18T07:55:24;-13.50;99.90
20590;DHT22;10453;50.810;12.540;2022-12-18T07:59:41;-13.40;99.90
20590;DHT22;10453;50.810;12.540;2022-12-18T08:03:59;-13.40;99.90
20590;DHT22;10453;50.810;12.540;2022-12-18T08:08:16;-13.30;99.90
20590;DHT22;10453;50.810;12.540;2022-12-18T08:12:33;-13.20;99.90
20590;DHT22;10453;50.810;12.540;2022-12-18T08:16:51;-13.10;99.90
20590;DHT22;10453;50.810;12.540;2022-12-18T08:21:13;-12.90;99.90
20590;DHT22;10453;50.810;12.540;2022-12-18T08:25:31;-12.80;99.90
20590;DHT22;10453;50.810;12.540;2022-12-18T08:29:49;-12.70;99.90
20590;DHT22;10453;50.810;12.540;2022-12-18T08:34:06;-12.60;99.90
20590;DHT22;10453;50.810;12.540;2022-12-18T08:38:23;-12.30;99.90
20590;DHT22;10453;50.810;12.540;2022-12-18T08:42:40;-12.10;99.90
20590;DHT22;10453;50.810;12.540;2022-12-18T08:47:16;-11.90;99.90
20590;DHT22;10453;50.810;12.540;2022-12-18T08:51:34;-11.50;99.90
20590;DHT22;10453;50.810;12.540;2022-12-18T08:55:52;-11.50;99.90
20590;DHT22;10453;50.810;12.540;2022-12-18T09:00:09;-11.20;99.90
20590;DHT22;10453;50.810;12.540;2022-12-18T09:04:27;-10.80;99.90
20590;DHT22;10453;50.810;12.540;2022-12-18T09:08:44;-10.40;99.90
20590;DHT22;10453;50.810;12.540;2022-12-18T09:13:02;-10.30;99.90
20590;DHT22;10453;50.810;12.540;2022-12-18T09:17:19;-10.20;99.90
20590;DHT22;10453;50.810;12.540;2022-12-18T09:21:37;-10.00;99.90
20590;DHT22;10453;50.810;12.540;2022-12-18T09:26:00;-10.00;99.90
20590;DHT22;10453;50.810;12.540;2022-12-18T09:30:17;-9.70;99.90
20590;DHT22;10453;50.810;12.540;2022-12-18T09:34:34;-9.50;99.90
20590;DHT22;10453;50.810;12.540;2022-12-18T09:38:52;-9.30;99.90
20590;DHT22;10453;50.810;12.540;2022-12-18T09:43:18;-9.00;99.90
20590;DHT22;10453;50.810;12.540;2022-12-18T09:47:38;-8.70;99.90
20590;DHT22;10453;50.810;12.540;2022-12-18T09:52:23;-8.60;99.90
20590;DHT22;10453;50.810;12.540;2022-12-18T09:56:42;-8.40;99.90
20590;DHT22;10453;50.810;12.540;2022-12-18T10:01:00;-8.20;99.90
20590;DHT22;10453;50.810;12.540;2022-12-18T10:05:36;-7.90;99.90
20590;DHT22;10453;50.810;12.540;2022-12-18T10:10:03;-7.90;99.90
20590;DHT22;10453;50.810;12.540;2022-12-18T10:28:17;-7.10;99.90
20590;DHT22;10453;50.810;12.540;2022-12-18T10:32:35;-7.00;99.90
20590;DHT22;10453;50.810;12.540;2022-12-18T10:36:52;-6.90;99.90
20590;DHT22;10453;50.810;12.540;2022-12-18T10:50:34;-6.40;99.90
20590;DHT22;10453;50.810;12.540;2022-12-18T10:55:16;-6.20;99.90
20590;DHT22;10453;50.810;12.540;2022-12-18T10:59:53;-6.10;99.90
20590;DHT22;10453;50.810;12.540;2022-12-18T11:04:17;-5.90;99.90
20590;DHT22;10453;50.810;12.540;2022-12-18T11:08:34;-5.90;99.90
20590;DHT22;10453;50.810;12.540;2022-12-18T11:12:52;-5.90;99.90
20590;DHT22;10453;50.810;12.540;2022-12-18T11:17:30;-5.80;99.90
20590;DHT22;10453;50.810;12.540;2022-12-18T11:21:48;-5.40;99.90
20590;DHT22;10453;50.810;12.540;2022-12-18T11:26:05;-5.20;99.90
20590;DHT22;10453;50.810;12.540;2022-12-18T11:30:31;-4.90;99.90
20590;DHT22;10453;50.810;12.540;2022-12-18T11:34:59;-4.90;99.90
20590;DHT22;10453;50.810;12.540;2022-12-18T11:39:37;-4.70;99.90
20590;DHT22;10453;50.810;12.540;2022-12-18T11:43:59;-4.30;99.90
20590;DHT22;10453;50.810;12.540;2022-12-18T11:48:30;-4.10;99.90
20590;DHT22;10453;50.810;12.540;2022-12-18T11:52:50;-4.10;99.90
20590;DHT22;10453;50.810;12.540;2022-12-18T12:01:55;-3.80;99.90
20590;DHT22;10453;50.810;12.540;2022-12-18T12:19:59;-0.20;99.90
20590;DHT22;10453;50.810;12.540;2022-12-18T12:24:38;1.30;99.90
20590;DHT22;10453;50.810;12.540;2022-12-18T12:34:08;0.90;99.90
20590;DHT22;10453;50.810;12.540;2022-12-18T12:38:41;0.30;99.90
20590;DHT22;10453;50.810;12.540;2022-12-18T12:47:52;0.00;99.90
20590;DHT22;10453;50.810;12.540;2022-12-18T13:01:39;-2.70;99.90
20590;DHT22;10453;50.810;12.540;2022-12-18T13:06:04;-2.70;99.90
20590;DHT22;10453;50.810;12.540;2022-12-18T13:14:49;-3.10;99.90
20590;DHT22;10453;50.810;12.540;2022-12-18T13:19:18;-3.40;99.90
20590;DHT22;10453;50.810;12.540;2022-12-18T13:23:38;-3.60;99.90
20590;DHT22;10453;50.810;12.540;2022-12-18T13:32:24;-4.40;99.90
20590;DHT22;10453;50.810;12.540;2022-12-18T13:36:43;-4.70;99.90
20590;DHT22;10453;50.810;12.540;2022-12-18T13:41:22;-5.00;99.90
20590;DHT22;10453;50.810;12.540;2022-12-18T13:45:43;-5.30;99.90
20590;DHT22;10453;50.810;12.540;2022-12-18T13:50:24;-5.50;99.90
20590;DHT22;10453;50.810;12.540;2022-12-18T13:54:57;-5.90;99.90
20590;DHT22;10453;50.810;12.540;2022-12-18T13:59:20;-6.20;99.90
20590;DHT22;10453;50.810;12.540;2022-12-18T14:03:41;-6.30;99.90
20590;DHT22;10453;50.810;12.540;2022-12-18T14:08:03;-6.40;99.90
20590;DHT22;10453;50.810;12.540;2022-12-18T14:12:25;-6.40;99.90
20590;DHT22;10453;50.810;12.540;2022-12-18T14:17:09;-6.50;99.90
20590;DHT22;10453;50.810;12.540;2022-12-18T14:21:29;-6.60;99.90
20590;DHT22;10453;50.810;12.540;2022-12-18T14:25:46;-6.60;99.90
20590;DHT22;10453;50.810;12.540;2022-12-18T14:30:24;-6.70;99.90
20590;DHT22;10453;50.810;12.540;2022-12-18T14:34:41;-6.80;99.90
20590;DHT22;10453;50.810;12.540;2022-12-18T14:38:59;-6.90;99.90
20590;DHT22;10453;50.810;12.540;2022-12-18T14:43:16;-7.00;99.90
20590;DHT22;10453;50.810;12.540;2022-12-18T14:47:33;-7.20;99.90
20590;DHT22;10453;50.810;12.540;2022-12-18T14:51:57;-7.40;99.90
20590;DHT22;10453;50.810;12.540;2022-12-18T14:56:21;-7.50;99.90
20590;DHT22;10453;50.810;12.540;2022-12-18T15:00:41;-7.60;99.90
20590;DHT22;10453;50.810;12.540;2022-12-18T15:05:01;-7.80;99.90
20590;DHT22;10453;50.810;12.540;2022-12-18T15:09:23;-7.90;99.90
20590;DHT22;10453;50.810;12.540;2022-12-18T15:13:40;-8.00;99.90
20590;DHT22;10453;50.810;12.540;2022-12-18T15:17:59;-8.10;99.90
20590;DHT22;10453;50.810;12.540;2022-12-18T15:22:33;-8.20;99.90
20590;DHT22;10453;50.810;12.540;2022-12-18T15:26:51;-8.30;99.90
20590;DHT22;10453;50.810;12.540;2022-12-18T15:35:26;-8.10;99.90
20590;DHT22;10453;50.810;12.540;2022-12-18T15:39:43;-8.00;99.90
20590;DHT22;10453;50.810;12.540;2022-12-18T15:44:01;-8.00;99.90
20590;DHT22;10453;50.810;12.540;2022-12-18T15:48:22;-7.90;99.90
20590;DHT22;10453;50.810;12.540;2022-12-18T15:52:41;-7.70;99.90
20590;DHT22;10453;50.810;12.540;2022-12-18T15:56:59;-7.60;99.90
20590;DHT22;10453;50.810;12.540;2022-12-18T16:01:35;-7.60;99.90
20590;DHT22;10453;50.810;12.540;2022-12-18T16:05:58;-7.60;99.90
20590;DHT22;10453;50.810;12.540;2022-12-18T16:10:18;-7.50;99.90
20590;DHT22;10453;50.810;12.540;2022-12-18T16:14:35;-7.40;99.90
20590;DHT22;10453;50.810;12.540;2022-12-18T16:18:52;-7.40;99.90
20590;DHT22;10453;50.810;12.540;2022-12-18T16:23:09;-7.50;99.90
20590;DHT22;10453;50.810;12.540;2022-12-18T16:27:26;-7.40;99.90
20590;DHT22;10453;50.810;12.540;2022-12-18T16:31:44;-7.40;99.90
20590;DHT22;10453;50.810;12.540;2022-12-18T16:36:01;-7.30;99.90
20590;DHT22;10453;50.810;12.540;2022-12-18T16:40:19;-7.40;99.90
20590;DHT22;10453;50.810;12.540;2022-12-18T16:44:36;-7.40;99.90
20590;DHT22;10453;50.810;12.540;2022-12-18T16:48:53;-7.40;99.90
20590;DHT22;10453;50.810;12.540;2022-12-18T16:53:10;-7.40;99.90
20590;DHT22;10453;50.810;12.540;2022-12-18T16:57:28;-7.40;99.90
20590;DHT22;10453;50.810;12.540;2022-12-18T17:01:45;-7.30;99.90
20590;DHT22;10453;50.810;12.540;2022-12-18T17:06:04;-7.20;99.90
20590;DHT22;10453;50.810;12.540;2022-12-18T17:10:22;-7.30;99.90
20590;DHT22;10453;50.810;12.540;2022-12-18T17:14:39;-7.30;99.90
20590;DHT22;10453;50.810;12.540;2022-12-18T17:18:56;-7.30;99.90
20590;DHT22;10453;50.810;12.540;2022-12-18T17:23:14;-7.20;99.90
20590;DHT22;10453;50.810;12.540;2022-12-18T17:27:31;-7.20;99.90
20590;DHT22;10453;50.810;12.540;2022-12-18T17:31:48;-7.00;99.90
20590;DHT22;10453;50.810;12.540;2022-12-18T17:36:06;-6.90;99.90
20590;DHT22;10453;50.810;12.540;2022-12-18T17:40:23;-6.80;99.90
20590;DHT22;10453;50.810;12.540;2022-12-18T17:44:41;-6.70;99.90
20590;DHT22;10453;50.810;12.540;2022-12-18T17:49:00;-6.80;99.90
20590;DHT22;10453;50.810;12.540;2022-12-18T17:53:18;-6.80;99.90
20590;DHT22;10453;50.810;12.540;2022-12-18T17:57:37;-6.70;99.90
20590;DHT22;10453;50.810;12.540;2022-12-18T18:01:54;-6.70;99.90
20590;DHT22;10453;50.810;12.540;2022-12-18T18:06:12;-6.70;99.90
20590;DHT22;10453;50.810;12.540;2022-12-18T18:10:29;-6.60;99.90
20590;DHT22;10453;50.810;12.540;2022-12-18T18:14:51;-6.50;99.90
20590;DHT22;10453;50.810;12.540;2022-12-18T18:19:11;-6.50;99.90
20590;DHT22;10453;50.810;12.540;2022-12-18T18:23:29;-6.40;99.90
20590;DHT22;10453;50.810;12.540;2022-12-18T18:27:47;-6.40;99.90
20590;DHT22;10453;50.810;12.540;2022-12-18T18:32:04;-6.40;99.90
20590;DHT22;10453;50.810;12.540;2022-12-18T18:36:22;-6.40;99.90
20590;DHT22;10453;50.810;12.540;2022-12-18T18:40:39;-6.40;99.90
20590;DHT22;10453;50.810;12.540;2022-12-18T18:44:57;-6.40;99.90
20590;DHT22;10453;50.810;12.540;2022-12-18T18:49:14;-6.40;99.90
20590;DHT22;10453;50.810;12.540;2022-12-18T18:53:36;-6.40;99.90
20590;DHT22;10453;50.810;12.540;2022-12-18T18:57:54;-6.40;99.90
20590;DHT22;10453;50.810;12.540;2022-12-18T19:02:14;-6.40;99.90
20590;DHT22;10453;50.810;12.540;2022-12-18T19:06:31;-6.40;99.90
20590;DHT22;10453;50.810;12.540;2022-12-18T19:10:51;-6.40;99.90
20590;DHT22;10453;50.810;12.540;2022-12-18T19:15:13;-6.40;99.90
20590;DHT22;10453;50.810;12.540;2022-12-18T19:19:31;-6.40;99.90
20590;DHT22;10453;50.810;12.540;2022-12-18T19:23:48;-6.40;99.90
20590;DHT22;10453;50.810;12.540;2022-12-18T19:28:06;-6.30;99.90
20590;DHT22;10453;50.810;12.540;2022-12-18T19:32:32;-6.30;99.90
20590;DHT22;10453;50.810;12.540;2022-12-18T19:36:50;-6.30;99.90
20590;DHT22;10453;50.810;12.540;2022-12-18T19:41:16;-6.20;99.90
20590;DHT22;10453;50.810;12.540;2022-12-18T19:45:34;-6.00;99.90
20590;DHT22;10453;50.810;12.540;2022-12-18T19:49:51;-5.90;99.90
20590;DHT22;10453;50.810;12.540;2022-12-18T19:54:09;-5.80;99.90
20590;DHT22;10453;50.810;12.540;2022-12-18T19:58:32;-5.80;99.90
20590;DHT22;10453;50.810;12.540;2022-12-18T20:02:50;-5.90;99.90
20590;DHT22;10453;50.810;12.540;2022-12-18T20:07:07;-5.80;99.90
20590;DHT22;10453;50.810;12.540;2022-12-18T20:11:25;-5.80;99.90
20590;DHT22;10453;50.810;12.540;2022-12-18T20:15:42;-5.80;99.90
20590;DHT22;10453;50.810;12.540;2022-12-18T20:20:01;-5.80;99.90
20590;DHT22;10453;50.810;12.540;2022-12-18T20:24:18;-5.70;99.90
20590;DHT22;10453;50.810;12.540;2022-12-18T20:28:36;-5.60;99.90
20590;DHT22;10453;50.810;12.540;2022-12-18T20:32:56;-5.60;99.90
20590;DHT22;10453;50.810;12.540;2022-12-18T20:37:13;-5.60;99.90
20590;DHT22;10453;50.810;12.540;2022-12-18T20:41:31;-5.60;99.90
20590;DHT22;10453;50.810;12.540;2022-12-18T20:46:03;-5.60;99.90
20590;DHT22;10453;50.810;12.540;2022-12-18T20:50:20;-5.60;99.90
20590;DHT22;10453;50.810;12.540;2022-12-18T20:54:38;-5.50;99.90
20590;DHT22;10453;50.810;12.540;2022-12-18T20:58:56;-5.50;99.90
20590;DHT22;10453;50.810;12.540;2022-12-18T21:03:13;-5.50;99.90
20590;DHT22;10453;50.810;12.540;2022-12-18T21:07:31;-5.50;99.90
20590;DHT22;10453;50.810;12.540;2022-12-18T21:11:48;-5.40;99.90
20590;DHT22;10453;50.810;12.540;2022-12-18T21:16:26;-5.40;99.90
20590;DHT22;10453;50.810;12.540;2022-12-18T21:20:44;-5.40;99.90
20590;DHT22;10453;50.810;12.540;2022-12-18T21:25:02;-5.30;99.90
20590;DHT22;10453;50.810;12.540;2022-12-18T21:29:22;-5.30;99.90
20590;DHT22;10453;50.810;12.540;2022-12-18T21:33:39;-5.30;99.90
20590;DHT22;10453;50.810;12.540;2022-12-18T21:37:56;-5.20;99.90
20590;DHT22;10453;50.810;12.540;2022-12-18T21:42:14;-5.20;99.90
20590;DHT22;10453;50.810;12.540;2022-12-18T21:46:50;-5.20;99.90
20590;DHT22;10453;50.810;12.540;2022-12-18T21:51:15;-5.10;99.90
20590;DHT22;10453;50.810;12.540;2022-12-18T21:55:33;-4.90;99.90
20590;DHT22;10453;50.810;12.540;2022-12-18T21:59:50;-4.90;99.90
20590;DHT22;10453;50.810;12.540;2022-12-18T22:04:07;-4.90;99.90
20590;DHT22;10453;50.810;12.540;2022-12-18T22:08:25;-4.80;99.90
20590;DHT22;10453;50.810;12.540;2022-12-18T22:12:42;-4.80;99.90
20590;DHT22;10453;50.810;12.540;2022-12-18T22:17:02;-4.70;99.90
20590;DHT22;10453;50.810;12.540;2022-12-18T22:21:28;-4.70;99.90
20590;DHT22;10453;50.810;12.540;2022-12-18T22:25:45;-4.60;99.90
20590;DHT22;10453;50.810;12.540;2022-12-18T22:30:03;-4.50;99.90
20590;DHT22;10453;50.810;12.540;2022-12-18T22:34:21;-4.70;99.90
20590;DHT22;10453;50.810;12.540;2022-12-18T22:38:39;-4.70;99.90
20590;DHT22;10453;50.810;12.540;2022-12-18T22:42:56;-4.70;99.90
20590;DHT22;10453;50.810;12.540;2022-12-18T22:47:13;-4.70;99.90
20590;DHT22;10453;50.810;12.540;2022-12-18T22:51:31;-4.60;99.90
20590;DHT22;10453;50.810;12.540;2022-12-18T22:55:48;-4.60;99.90
20590;DHT22;10453;50.810;12.540;2022-12-18T23:00:06;-4.70;99.90
20590;DHT22;10453;50.810;12.540;2022-12-18T23:04:25;-4.80;99.90
20590;DHT22;10453;50.810;12.540;2022-12-18T23:08:54;-4.70;99.90
20590;DHT22;10453;50.810;12.540;2022-12-18T23:13:12;-4.60;99.90
20590;DHT22;10453;50.810;12.540;2022-12-18T23:17:29;-4.60;99.90
20590;DHT22;10453;50.810;12.540;2022-12-18T23:21:46;-4.60;99.90
20590;DHT22;10453;50.810;12.540;2022-12-18T23:26:06;-4.60;99.90
20590;DHT22;10453;50.810;12.540;2022-12-18T23:30:24;-4.50;99.90
20590;DHT22;10453;50.810;12.540;2022-12-18T23:34:41;-4.60;99.90
20590;DHT22;10453;50.810;12.540;2022-12-18T23:38:59;-4.50;99.90
20590;DHT22;10453;50.810;12.540;2022-12-18T23:43:16;-4.40;99.90
20590;DHT22;10453;50.810;12.540;2022-12-18T23:47:34;-4.40;99.90
20590;DHT22;10453;50.810;12.540;2022-12-18T23:51:53;-4.40;99.90
20590;DHT22;10453;50.810;12.540;2022-12-18T23:56:12;-4.40;99.90
